Baltia — 9HMG9 — position and weather

sailwx.info

Track history (hours):
 
Tides and Currents Weather Stations Pressure Air Temp Water Temp Dewpoint Dewpoint Depression Visibility Wind Speed Wind Dir Waves Ship Positions

Baltia

Last reported at 2015-Feb-01 17:06 UTC. Time now 2015-Feb-01 18:13 UTC.
Position N 29°39' E 122°24'.

Length 224 m; draft 6.8 m.

Type: Cargo ship. MMSI: 249174000.

Date/timePositionNaut miles runAvg speedWind from/ knotsBaromVisibWave heightAir tempDewpointWater temp
2015-Feb-01 17:06N 29°39' E 122°24'0 0.0
2015-Feb-01 15:33N 29°39' E 122°24'0 0.0
2015-Feb-01 14:33N 29°39' E 122°24'0 0.1
2015-Feb-01 13:33N 29°39' E 122°24'0 0.1
2015-Feb-01 12:32N 29°39' E 122°24'0 0.0
2015-Feb-01 11:33N 29°39' E 122°24'0 0.1
2015-Feb-01 10:33N 29°39' E 122°24'0 0.0
2015-Feb-01 09:33N 29°39' E 122°24'1 1.3
2015-Feb-01 08:33N 29°41' E 122°24'1010.0
2015-Feb-01 07:33N 29°47' E 122°16'6 1.5
2015-Feb-01 03:27N 29°53' E 122°13'0 0.0
2015-Feb-01 02:33N 29°53' E 122°13'0 0.0
2015-Feb-01 01:21N 29°53' E 122°13'0 0.1
2015-Feb-01 00:09N 29°53' E 122°13'0 0.2
2015-Jan-31 23:15N 29°53' E 122°13'0 0.0
2015-Jan-31 21:15N 29°53' E 122°13'0 0.0
2015-Jan-31 20:33N 29°53' E 122°13'0 0.0
2015-Jan-31 18:32N 29°53' E 122°13'0 0.0
2015-Jan-31 17:31N 29°53' E 122°13'0 0.0
2015-Jan-31 16:33N 29°53' E 122°13'0 0.0
2015-Jan-31 15:32N 29°53' E 122°13'0 0.0
2015-Jan-31 14:32N 29°53' E 122°13'0 0.1
2015-Jan-31 13:32N 29°53' E 122°13'0 0.0
2015-Jan-31 12:33N 29°53' E 122°13'0 0.1
2015-Jan-31 11:33N 29°53' E 122°13'5 4.8
2015-Jan-31 10:33N 29°55' E 122°08'7 6.9
2015-Jan-31 09:33N 29°56' E 122°00'8 7.5
2015-Jan-31 08:33N 30°03' E 121°57'2 2.0
2015-Jan-31 07:32N 30°05' E 121°57'0 0.0
2015-Jan-31 06:20N 30°05' E 121°57'0 0.0
2015-Jan-31 05:32N 30°05' E 121°57'0 0.0
2015-Jan-31 03:26N 30°05' E 121°57'0 0.0
2015-Jan-31 01:26N 30°05' E 121°57'0 0.0
2015-Jan-30 23:23N 30°05' E 121°57'0 0.0
2015-Jan-30 22:08N 30°05' E 121°57'0 0.0
2015-Jan-30 21:29N 30°05' E 121°57'0 0.1
2015-Jan-30 20:33N 30°05' E 121°57'0 0.1
2015-Jan-30 19:32N 30°05' E 121°57'0 0.0
2015-Jan-30 18:28N 30°05' E 121°57'0 0.0
2015-Jan-30 17:32N 30°05' E 121°57'0 0.0
2015-Jan-30 16:31N 30°05' E 121°57'0 0.0
2015-Jan-30 15:33N 30°05' E 121°57'0 0.0
2015-Jan-30 14:33N 30°05' E 121°57'0 0.0
2015-Jan-30 13:33N 30°05' E 121°57'0 0.0
2015-Jan-30 12:33N 30°05' E 121°57'0 0.0
2015-Jan-30 11:32N 30°05' E 121°57'0 0.0
2015-Jan-30 10:31N 30°05' E 121°57'0 0.0
2015-Jan-30 09:32N 30°05' E 121°57'0 0.0
2015-Jan-30 08:30N 30°05' E 121°57'0 0.0
2015-Jan-30 07:31N 30°05' E 121°57'0 0.0
2015-Jan-30 06:33N 30°05' E 121°57'0 0.0
2015-Jan-30 05:32N 30°05' E 121°57'0 0.0
2015-Jan-30 04:31N 30°05' E 121°57'0 0.0
2015-Jan-30 03:33N 30°05' E 121°57'0 0.0
2015-Jan-30 02:30N 30°05' E 121°57'0 0.0
2015-Jan-30 01:31N 30°05' E 121°57'0 0.0
2015-Jan-30 00:31N 30°05' E 121°57'0 0.0
2015-Jan-29 23:33N 30°05' E 121°57'0 0.0
2015-Jan-29 22:15N 30°05' E 121°57'0 0.0
2015-Jan-29 21:33N 30°05' E 121°57'0 0.0
2015-Jan-29 20:33N 30°05' E 121°57'0 0.0
2015-Jan-29 19:33N 30°05' E 121°57'0 0.0
2015-Jan-29 18:33N 30°05' E 121°57'0 0.0
2015-Jan-29 17:27N 30°05' E 121°57'0 0.0
2015-Jan-29 16:32N 30°05' E 121°57'0 0.0
2015-Jan-29 15:33N 30°05' E 121°57'0 0.0
2015-Jan-29 14:33N 30°05' E 121°57'0 0.0
2015-Jan-29 13:33N 30°05' E 121°57'0 0.0
2015-Jan-29 12:32N 30°05' E 121°57'0 0.0
2015-Jan-29 11:32N 30°05' E 121°57'0 0.0
2015-Jan-29 10:33N 30°05' E 121°57'0 0.0
2015-Jan-29 09:25N 30°05' E 121°57'0 0.0
2015-Jan-29 08:09N 30°05' E 121°57'0 0.0
2015-Jan-29 07:15N 30°05' E 121°57'0 0.0
2015-Jan-29 06:27N 30°05' E 121°57'0 0.0
2015-Jan-29 05:21N 30°05' E 121°57'0 0.0
2015-Jan-29 04:15N 30°05' E 121°57'0 0.0
2015-Jan-29 03:30N 30°05' E 121°57'0 0.0
2015-Jan-29 02:30N 30°05' E 121°57'0 0.0
2015-Jan-29 01:30N 30°05' E 121°57'0 0.0
2015-Jan-29 00:21N 30°05' E 121°57'0 0.0
2015-Jan-28 23:18N 30°05' E 121°57'0 0.0
2015-Jan-28 21:33N 30°05' E 121°57'0 0.0
2015-Jan-28 19:21N 30°05' E 121°57'0 0.0
2015-Jan-28 09:27N 30°05' E 121°57'0 0.0
2015-Jan-28 04:15N 30°05' E 121°57'0 0.0
2015-Jan-28 01:33N 30°05' E 121°57'0 0.0
2015-Jan-27 23:33N 30°05' E 121°57'0 0.0
2015-Jan-27 21:21N 30°05' E 121°57'0 0.0
2015-Jan-27 15:27N 30°05' E 121°57'0 0.0
2015-Jan-27 14:21N 30°05' E 121°57'0 0.0
2015-Jan-27 12:33N 30°05' E 121°57'0 0.0
2015-Jan-27 10:15N 30°05' E 121°57'0 0.0
2015-Jan-27 09:33N 30°05' E 121°57'0 0.0
2015-Jan-27 08:09N 30°05' E 121°57'0 0.0
2015-Jan-27 07:27N 30°05' E 121°57'0 0.0
2015-Jan-27 06:27N 30°05' E 121°57'0 0.0
2015-Jan-27 05:27N 30°05' E 121°57'0 0.0
2015-Jan-27 04:33N 30°05' E 121°57'0 0.0
2015-Jan-27 02:15N 30°05' E 121°57'0 0.0
2015-Jan-27 01:27N 30°05' E 121°57'0 0.0
2015-Jan-26 23:15N 30°05' E 121°57'0 0.0
2015-Jan-26 22:33N 30°05' E 121°57'0 0.0
2015-Jan-26 21:21N 30°05' E 121°57'0 0.0
2015-Jan-26 20:33N 30°05' E 121°57'0 0.0
2015-Jan-26 19:09N 30°05' E 121°57'0 0.0
2015-Jan-26 18:09N 30°05' E 121°57'0 0.0
2015-Jan-26 17:33N 30°05' E 121°57'0 0.0
2015-Jan-26 15:27N 30°05' E 121°57'0 0.0
2015-Jan-26 13:21N 30°05' E 121°57'0 0.0
2015-Jan-26 12:33N 30°05' E 121°57'0 0.0
2015-Jan-26 11:09N 30°05' E 121°57'0 0.0
2015-Jan-26 10:09N 30°05' E 121°57'0 0.0
2015-Jan-26 08:03N 30°05' E 121°57'0 0.0
2015-Jan-26 07:33N 30°05' E 121°57'0 0.0
2015-Jan-26 06:27N 30°05' E 121°57'0 0.0
2015-Jan-26 05:27N 30°05' E 121°57'0 0.0
2015-Jan-26 04:33N 30°05' E 121°57'0 0.0
2015-Jan-26 03:27N 30°05' E 121°57'0 0.0
2015-Jan-26 02:27N 30°05' E 121°57'0 0.0
2015-Jan-26 01:21N 30°05' E 121°57'0 0.0
2015-Jan-26 00:27N 30°05' E 121°57'0 0.0
2015-Jan-25 20:09N 30°05' E 121°57'0 0.0
2015-Jan-25 19:15N 30°05' E 121°57'0 0.0
2015-Jan-25 15:27N 30°05' E 121°57'0 0.0
2015-Jan-25 14:15N 30°05' E 121°57'0 0.0
2015-Jan-25 12:15N 30°05' E 121°57'0 0.0
2015-Jan-25 11:33N 30°05' E 121°57'0 0.0
2015-Jan-25 10:27N 30°05' E 121°57'0 0.0
2015-Jan-25 09:33N 30°05' E 121°57'0 0.0
2015-Jan-25 07:33N 30°05' E 121°57'0 0.0
2015-Jan-25 06:27N 30°05' E 121°57'0 0.0
2015-Jan-25 05:21N 30°05' E 121°57'0 0.0
2015-Jan-25 01:27N 30°05' E 121°57'0 0.0
2015-Jan-25 00:33N 30°05' E 121°57'0 0.0
2015-Jan-24 23:33N 30°05' E 121°57'0 0.0
2015-Jan-24 22:33N 30°05' E 121°57'0 0.0
2015-Jan-24 21:21N 30°05' E 121°57'0 0.0
2015-Jan-24 19:15N 30°05' E 121°57'0 0.0
2015-Jan-24 16:27N 30°05' E 121°57'0 0.0
2015-Jan-24 15:27N 30°05' E 121°57'0 0.0
2015-Jan-24 13:15N 30°05' E 121°57'0 0.0
2015-Jan-24 12:27N 30°05' E 121°57'0 0.0
2015-Jan-24 11:21N 30°05' E 121°57'0 0.0
2015-Jan-24 10:15N 30°05' E 121°57'0 0.0
2015-Jan-24 09:33N 30°05' E 121°57'0 0.0
2015-Jan-24 08:33N 30°05' E 121°57'0 0.0
2015-Jan-24 00:15N 30°05' E 121°57'0 0.0
2015-Jan-23 21:27N 30°05' E 121°57'0 0.0
2015-Jan-23 20:27N 30°05' E 121°57'0 0.0
2015-Jan-23 19:27N 30°05' E 121°57'0 0.0
2015-Jan-23 17:27N 30°05' E 121°57'0 0.0
2015-Jan-22 21:22N 30°05' E 121°57'0 0.0
2015-Jan-22 20:16N 30°05' E 121°57'  
Track history (hours):
 
Tides and Currents Weather Stations Pressure Air Temp Water Temp Dewpoint Dewpoint Depression Visibility Wind Speed Wind Dir Waves Ship Positions

Baltia

Last reported at 2015-Feb-01 17:06 UTC. Time now 2015-Feb-01 18:13 UTC.
Position N 29°39' E 122°24'.

Length 224 m; draft 6.8 m.

Type: Cargo ship. MMSI: 249174000.

Date/timePositionNaut miles runAvg speedWind from/ knotsBaromVisibWave heightAir tempDewpointWater temp
2015-Feb-01 17:06N 29°39' E 122°24'0 0.0
2015-Feb-01 15:33N 29°39' E 122°24'0 0.0
2015-Feb-01 14:33N 29°39' E 122°24'0 0.1
2015-Feb-01 13:33N 29°39' E 122°24'0 0.1
2015-Feb-01 12:32N 29°39' E 122°24'0 0.0
2015-Feb-01 11:33N 29°39' E 122°24'0 0.1
2015-Feb-01 10:33N 29°39' E 122°24'0 0.0
2015-Feb-01 09:33N 29°39' E 122°24'1 1.3
2015-Feb-01 08:33N 29°41' E 122°24'1010.0
2015-Feb-01 07:33N 29°47' E 122°16'6 1.5
2015-Feb-01 03:27N 29°53' E 122°13'0 0.0
2015-Feb-01 02:33N 29°53' E 122°13'0 0.0
2015-Feb-01 01:21N 29°53' E 122°13'0 0.1
2015-Feb-01 00:09N 29°53' E 122°13'0 0.2
2015-Jan-31 23:15N 29°53' E 122°13'0 0.0
2015-Jan-31 21:15N 29°53' E 122°13'0 0.0
2015-Jan-31 20:33N 29°53' E 122°13'0 0.0
2015-Jan-31 18:32N 29°53' E 122°13'0 0.0
2015-Jan-31 17:31N 29°53' E 122°13'0 0.0
2015-Jan-31 16:33N 29°53' E 122°13'0 0.0
2015-Jan-31 15:32N 29°53' E 122°13'0 0.0
2015-Jan-31 14:32N 29°53' E 122°13'0 0.1
2015-Jan-31 13:32N 29°53' E 122°13'0 0.0
2015-Jan-31 12:33N 29°53' E 122°13'0 0.1
2015-Jan-31 11:33N 29°53' E 122°13'5 4.8
2015-Jan-31 10:33N 29°55' E 122°08'7 6.9
2015-Jan-31 09:33N 29°56' E 122°00'8 7.5
2015-Jan-31 08:33N 30°03' E 121°57'2 2.0
2015-Jan-31 07:32N 30°05' E 121°57'0 0.0
2015-Jan-31 06:20N 30°05' E 121°57'0 0.0
2015-Jan-31 05:32N 30°05' E 121°57'0 0.0
2015-Jan-31 03:26N 30°05' E 121°57'0 0.0
2015-Jan-31 01:26N 30°05' E 121°57'0 0.0
2015-Jan-30 23:23N 30°05' E 121°57'0 0.0
2015-Jan-30 22:08N 30°05' E 121°57'0 0.0
2015-Jan-30 21:29N 30°05' E 121°57'0 0.1
2015-Jan-30 20:33N 30°05' E 121°57'0 0.1
2015-Jan-30 19:32N 30°05' E 121°57'0 0.0
2015-Jan-30 18:28N 30°05' E 121°57'0 0.0
2015-Jan-30 17:32N 30°05' E 121°57'0 0.0
2015-Jan-30 16:31N 30°05' E 121°57'0 0.0
2015-Jan-30 15:33N 30°05' E 121°57'0 0.0
2015-Jan-30 14:33N 30°05' E 121°57'0 0.0
2015-Jan-30 13:33N 30°05' E 121°57'0 0.0
2015-Jan-30 12:33N 30°05' E 121°57'0 0.0
2015-Jan-30 11:32N 30°05' E 121°57'0 0.0
2015-Jan-30 10:31N 30°05' E 121°57'0 0.0
2015-Jan-30 09:32N 30°05' E 121°57'0 0.0
2015-Jan-30 08:30N 30°05' E 121°57'0 0.0
2015-Jan-30 07:31N 30°05' E 121°57'0 0.0
2015-Jan-30 06:33N 30°05' E 121°57'0 0.0
2015-Jan-30 05:32N 30°05' E 121°57'0 0.0
2015-Jan-30 04:31N 30°05' E 121°57'0 0.0
2015-Jan-30 03:33N 30°05' E 121°57'0 0.0
2015-Jan-30 02:30N 30°05' E 121°57'0 0.0
2015-Jan-30 01:31N 30°05' E 121°57'0 0.0
2015-Jan-30 00:31N 30°05' E 121°57'0 0.0
2015-Jan-29 23:33N 30°05' E 121°57'0 0.0
2015-Jan-29 22:15N 30°05' E 121°57'0 0.0
2015-Jan-29 21:33N 30°05' E 121°57'0 0.0
2015-Jan-29 20:33N 30°05' E 121°57'0 0.0
2015-Jan-29 19:33N 30°05' E 121°57'0 0.0
2015-Jan-29 18:33N 30°05' E 121°57'0 0.0
2015-Jan-29 17:27N 30°05' E 121°57'0 0.0
2015-Jan-29 16:32N 30°05' E 121°57'0 0.0
2015-Jan-29 15:33N 30°05' E 121°57'0 0.0
2015-Jan-29 14:33N 30°05' E 121°57'0 0.0
2015-Jan-29 13:33N 30°05' E 121°57'0 0.0
2015-Jan-29 12:32N 30°05' E 121°57'0 0.0
2015-Jan-29 11:32N 30°05' E 121°57'0 0.0
2015-Jan-29 10:33N 30°05' E 121°57'0 0.0
2015-Jan-29 09:25N 30°05' E 121°57'0 0.0
2015-Jan-29 08:09N 30°05' E 121°57'0 0.0
2015-Jan-29 07:15N 30°05' E 121°57'0 0.0
2015-Jan-29 06:27N 30°05' E 121°57'0 0.0
2015-Jan-29 05:21N 30°05' E 121°57'0 0.0
2015-Jan-29 04:15N 30°05' E 121°57'0 0.0
2015-Jan-29 03:30N 30°05' E 121°57'0 0.0
2015-Jan-29 02:30N 30°05' E 121°57'0 0.0
2015-Jan-29 01:30N 30°05' E 121°57'0 0.0
2015-Jan-29 00:21N 30°05' E 121°57'0 0.0
2015-Jan-28 23:18N 30°05' E 121°57'0 0.0
2015-Jan-28 21:33N 30°05' E 121°57'0 0.0
2015-Jan-28 19:21N 30°05' E 121°57'0 0.0
2015-Jan-28 09:27N 30°05' E 121°57'0 0.0
2015-Jan-28 04:15N 30°05' E 121°57'0 0.0
2015-Jan-28 01:33N 30°05' E 121°57'0 0.0
2015-Jan-27 23:33N 30°05' E 121°57'0 0.0
2015-Jan-27 21:21N 30°05' E 121°57'0 0.0
2015-Jan-27 15:27N 30°05' E 121°57'0 0.0
2015-Jan-27 14:21N 30°05' E 121°57'0 0.0
2015-Jan-27 12:33N 30°05' E 121°57'0 0.0
2015-Jan-27 10:15N 30°05' E 121°57'0 0.0
2015-Jan-27 09:33N 30°05' E 121°57'0 0.0
2015-Jan-27 08:09N 30°05' E 121°57'0 0.0
2015-Jan-27 07:27N 30°05' E 121°57'0 0.0
2015-Jan-27 06:27N 30°05' E 121°57'0 0.0
2015-Jan-27 05:27N 30°05' E 121°57'0 0.0
2015-Jan-27 04:33N 30°05' E 121°57'0 0.0
2015-Jan-27 02:15N 30°05' E 121°57'0 0.0
2015-Jan-27 01:27N 30°05' E 121°57'0 0.0
2015-Jan-26 23:15N 30°05' E 121°57'0 0.0
2015-Jan-26 22:33N 30°05' E 121°57'0 0.0
2015-Jan-26 21:21N 30°05' E 121°57'0 0.0
2015-Jan-26 20:33N 30°05' E 121°57'0 0.0
2015-Jan-26 19:09N 30°05' E 121°57'0 0.0
2015-Jan-26 18:09N 30°05' E 121°57'0 0.0
2015-Jan-26 17:33N 30°05' E 121°57'0 0.0
2015-Jan-26 15:27N 30°05' E 121°57'0 0.0
2015-Jan-26 13:21N 30°05' E 121°57'0 0.0
2015-Jan-26 12:33N 30°05' E 121°57'0 0.0
2015-Jan-26 11:09N 30°05' E 121°57'0 0.0
2015-Jan-26 10:09N 30°05' E 121°57'0 0.0
2015-Jan-26 08:03N 30°05' E 121°57'0 0.0
2015-Jan-26 07:33N 30°05' E 121°57'0 0.0
2015-Jan-26 06:27N 30°05' E 121°57'0 0.0
2015-Jan-26 05:27N 30°05' E 121°57'0 0.0
2015-Jan-26 04:33N 30°05' E 121°57'0 0.0
2015-Jan-26 03:27N 30°05' E 121°57'0 0.0
2015-Jan-26 02:27N 30°05' E 121°57'0 0.0
2015-Jan-26 01:21N 30°05' E 121°57'0 0.0
2015-Jan-26 00:27N 30°05' E 121°57'0 0.0
2015-Jan-25 20:09N 30°05' E 121°57'0 0.0
2015-Jan-25 19:15N 30°05' E 121°57'0 0.0
2015-Jan-25 15:27N 30°05' E 121°57'0 0.0
2015-Jan-25 14:15N 30°05' E 121°57'0 0.0
2015-Jan-25 12:15N 30°05' E 121°57'0 0.0
2015-Jan-25 11:33N 30°05' E 121°57'0 0.0
2015-Jan-25 10:27N 30°05' E 121°57'0 0.0
2015-Jan-25 09:33N 30°05' E 121°57'0 0.0
2015-Jan-25 07:33N 30°05' E 121°57'0 0.0
2015-Jan-25 06:27N 30°05' E 121°57'0 0.0
2015-Jan-25 05:21N 30°05' E 121°57'0 0.0
2015-Jan-25 01:27N 30°05' E 121°57'0 0.0
2015-Jan-25 00:33N 30°05' E 121°57'0 0.0
2015-Jan-24 23:33N 30°05' E 121°57'0 0.0
2015-Jan-24 22:33N 30°05' E 121°57'0 0.0
2015-Jan-24 21:21N 30°05' E 121°57'0 0.0
2015-Jan-24 19:15N 30°05' E 121°57'0 0.0
2015-Jan-24 16:27N 30°05' E 121°57'0 0.0
2015-Jan-24 15:27N 30°05' E 121°57'0 0.0
2015-Jan-24 13:15N 30°05' E 121°57'0 0.0
2015-Jan-24 12:27N 30°05' E 121°57'0 0.0
2015-Jan-24 11:21N 30°05' E 121°57'0 0.0
2015-Jan-24 10:15N 30°05' E 121°57'0 0.0
2015-Jan-24 09:33N 30°05' E 121°57'0 0.0
2015-Jan-24 08:33N 30°05' E 121°57'0 0.0
2015-Jan-24 00:15N 30°05' E 121°57'0 0.0
2015-Jan-23 21:27N 30°05' E 121°57'0 0.0
2015-Jan-23 20:27N 30°05' E 121°57'0 0.0
2015-Jan-23 19:27N 30°05' E 121°57'0 0.0
2015-Jan-23 17:27N 30°05' E 121°57'0 0.0
2015-Jan-22 21:22N 30°05' E 121°57'0 0.0
2015-Jan-22 20:16N 30°05' E 121°57'  

Dump ship's entire track history